sensor_id;sensor_type;location;lat;lon;timestamp;pressure;altitude;pressure_sealevel;temperature;humidity
5877;BME280;2964;42.144;24.730;2022-12-29T00:02:21;142928.22;;;5.31;100.00
5877;BME280;2964;42.144;24.730;2022-12-29T00:04:49;142901.97;;;5.20;100.00
5877;BME280;2964;42.144;24.730;2022-12-29T00:07:16;142889.50;;;5.15;100.00
5877;BME280;2964;42.144;24.730;2022-12-29T00:09:42;142880.75;;;5.11;100.00
5877;BME280;2964;42.144;24.730;2022-12-29T00:12:09;142862.00;;;5.03;100.00
5877;BME280;2964;42.144;24.730;2022-12-29T00:14:37;142798.19;;;4.77;100.00
5877;BME280;2964;42.144;24.730;2022-12-29T00:17:21;142850.72;;;4.99;100.00
5877;BME280;2964;42.144;24.730;2022-12-29T00:19:48;142790.72;;;4.74;100.00
5877;BME280;2964;42.144;24.730;2022-12-29T00:22:32;142835.75;;;4.93;100.00
5877;BME280;2964;42.144;24.730;2022-12-29T00:25:17;142848.19;;;4.98;100.00
5877;BME280;2964;42.144;24.730;2022-12-29T00:28:04;142867.00;;;5.06;100.00
5877;BME280;2964;42.144;24.730;2022-12-29T00:30:49;142875.75;;;5.09;100.00
5877;BME280;2964;42.144;24.730;2022-12-29T00:33:34;142883.22;;;5.12;100.00
5877;BME280;2964;42.144;24.730;2022-12-29T00:36:19;142886.97;;;5.14;100.00
5877;BME280;2964;42.144;24.730;2022-12-29T00:38:49;142900.72;;;5.19;100.00
5877;BME280;2964;42.144;24.730;2022-12-29T00:41:34;142915.75;;;5.26;100.00
5877;BME280;2964;42.144;24.730;2022-12-29T00:44:18;142925.75;;;5.30;100.00
5877;BME280;2964;42.144;24.730;2022-12-29T00:46:46;142929.53;;;5.31;100.00
5877;BME280;2964;42.144;24.730;2022-12-29T00:49:14;142925.75;;;5.30;100.00
5877;BME280;2964;42.144;24.730;2022-12-29T00:52:00;142927.00;;;5.30;100.00
5877;BME280;2964;42.144;24.730;2022-12-29T00:54:29;142948.28;;;5.39;100.00
5877;BME280;2964;42.144;24.730;2022-12-29T00:56:55;142974.53;;;5.50;100.00
5877;BME280;2964;42.144;24.730;2022-12-29T00:59:22;142955.75;;;5.42;100.00
5877;BME280;2964;42.144;24.730;2022-12-29T01:01:52;142985.78;;;5.54;100.00
5877;BME280;2964;42.144;24.730;2022-12-29T01:04:20;142992.00;;;5.57;100.00
5877;BME280;2964;42.144;24.730;2022-12-29T01:06:47;143024.56;;;5.70;100.00
5877;BME280;2964;42.144;24.730;2022-12-29T01:09:14;143064.63;;;5.87;100.00
5877;BME280;2964;42.144;24.730;2022-12-29T01:11:59;143052.09;;;5.82;100.00
5877;BME280;2964;42.144;24.730;2022-12-29T01:14:25;143005.81;;;5.63;100.00
5877;BME280;2964;42.144;24.730;2022-12-29T01:16:54;143023.28;;;5.70;100.00
5877;BME280;2964;42.144;24.730;2022-12-29T01:19:22;142989.53;;;5.56;100.00
5877;BME280;2964;42.144;24.730;2022-12-29T01:21:49;142979.53;;;5.52;100.00
5877;BME280;2964;42.144;24.730;2022-12-29T01:24:17;143032.06;;;5.73;100.00
5877;BME280;2964;42.144;24.730;2022-12-29T01:26:44;143038.34;;;5.76;100.00
5877;BME280;2964;42.144;24.730;2022-12-29T01:29:11;142965.78;;;5.46;100.00
5877;BME280;2964;42.144;24.730;2022-12-29T01:31:38;143065.84;;;5.87;100.00
5877;BME280;2964;42.144;24.730;2022-12-29T01:34:06;143050.84;;;5.81;100.00
5877;BME280;2964;42.144;24.730;2022-12-29T01:36:33;143062.09;;;5.86;100.00
5877;BME280;2964;42.144;24.730;2022-12-29T01:39:00;143060.84;;;5.85;100.00
5877;BME280;2964;42.144;24.730;2022-12-29T01:41:26;143064.63;;;5.87;100.00
5877;BME280;2964;42.144;24.730;2022-12-29T01:43:54;143065.84;;;5.87;100.00
5877;BME280;2964;42.144;24.730;2022-12-29T01:46:25;143063.34;;;5.86;100.00
5877;BME280;2964;42.144;24.730;2022-12-29T01:48:57;143058.34;;;5.84;100.00
5877;BME280;2964;42.144;24.730;2022-12-29T01:51:30;143044.56;;;5.78;100.00
5877;BME280;2964;42.144;24.730;2022-12-29T01:54:00;143023.28;;;5.70;100.00
5877;BME280;2964;42.144;24.730;2022-12-29T01:56:29;143028.34;;;5.72;100.00
5877;BME280;2964;42.144;24.730;2022-12-29T01:59:01;143028.34;;;5.72;100.00
5877;BME280;2964;42.144;24.730;2022-12-29T02:01:29;143035.81;;;5.75;100.00
5877;BME280;2964;42.144;24.730;2022-12-29T02:03:56;143035.81;;;5.75;100.00
5877;BME280;2964;42.144;24.730;2022-12-29T02:06:28;143045.81;;;5.79;100.00
5877;BME280;2964;42.144;24.730;2022-12-29T02:08:56;143047.09;;;5.79;100.00
5877;BME280;2964;42.144;24.730;2022-12-29T02:11:25;143055.84;;;5.83;100.00
5877;BME280;2964;42.144;24.730;2022-12-29T02:13:52;143063.34;;;5.86;100.00
5877;BME280;2964;42.144;24.730;2022-12-29T02:16:30;143068.34;;;5.88;100.00
5877;BME280;2964;42.144;24.730;2022-12-29T02:19:19;143063.34;;;5.86;100.00
5877;BME280;2964;42.144;24.730;2022-12-29T02:22:11;143084.63;;;5.95;100.00
5877;BME280;2964;42.144;24.730;2022-12-29T02:25:00;143084.63;;;5.95;100.00
5877;BME280;2964;42.144;24.730;2022-12-29T02:27:55;143062.09;;;5.86;100.00
5877;BME280;2964;42.144;24.730;2022-12-29T02:30:44;143055.84;;;5.83;100.00
5877;BME280;2964;42.144;24.730;2022-12-29T02:33:27;143040.81;;;5.77;100.00
5877;BME280;2964;42.144;24.730;2022-12-29T02:36:03;143030.81;;;5.73;100.00
5877;BME280;2964;42.144;24.730;2022-12-29T02:38:46;143038.34;;;5.76;100.00
5877;BME280;2964;42.144;24.730;2022-12-29T02:41:19;143025.81;;;5.71;100.00
5877;BME280;2964;42.144;24.730;2022-12-29T02:43:50;143013.28;;;5.66;100.00
5877;BME280;2964;42.144;24.730;2022-12-29T02:46:22;142983.31;;;5.53;100.00
5877;BME280;2964;42.144;24.730;2022-12-29T02:48:57;142938.28;;;5.35;100.00
5877;BME280;2964;42.144;24.730;2022-12-29T02:51:31;142938.28;;;5.35;100.00
5877;BME280;2964;42.144;24.730;2022-12-29T02:53:59;142928.22;;;5.31;100.00
5877;BME280;2964;42.144;24.730;2022-12-29T02:56:43;142895.72;;;5.17;100.00
5877;BME280;2964;42.144;24.730;2022-12-29T02:59:12;142886.97;;;5.14;100.00
5877;BME280;2964;42.144;24.730;2022-12-29T03:01:55;142873.22;;;5.08;100.00
5877;BME280;2964;42.144;24.730;2022-12-29T03:05:04;142820.69;;;4.87;100.00
5877;BME280;2964;42.144;24.730;2022-12-29T03:07:40;142825.69;;;4.89;100.00
5877;BME280;2964;42.144;24.730;2022-12-29T03:10:23;142805.72;;;4.80;100.00
5877;BME280;2964;42.144;24.730;2022-12-29T03:13:01;142788.22;;;4.73;100.00
5877;BME280;2964;42.144;24.730;2022-12-29T03:15:54;142758.19;;;4.61;100.00
5877;BME280;2964;42.144;24.730;2022-12-29T03:18:40;142808.25;;;4.81;100.00
5877;BME280;2964;42.144;24.730;2022-12-29T03:21:12;142783.22;;;4.71;100.00
5877;BME280;2964;42.144;24.730;2022-12-29T03:23:43;142778.22;;;4.69;100.00
5877;BME280;2964;42.144;24.730;2022-12-29T03:26:14;142778.22;;;4.69;100.00
5877;BME280;2964;42.144;24.730;2022-12-29T03:28:46;142773.22;;;4.67;100.00
5877;BME280;2964;42.144;24.730;2022-12-29T03:31:15;142801.97;;;4.79;100.00
5877;BME280;2964;42.144;24.730;2022-12-29T03:33:46;142776.97;;;4.69;100.00
5877;BME280;2964;42.144;24.730;2022-12-29T03:36:18;142735.69;;;4.52;100.00
5877;BME280;2964;42.144;24.730;2022-12-29T03:38:50;142718.25;;;4.44;100.00
5877;BME280;2964;42.144;24.730;2022-12-29T03:41:23;142710.72;;;4.41;100.00
5877;BME280;2964;42.144;24.730;2022-12-29T03:43:51;142658.25;;;4.20;100.00
5877;BME280;2964;42.144;24.730;2022-12-29T03:46:17;142695.75;;;4.35;100.00
5877;BME280;2964;42.144;24.730;2022-12-29T03:48:45;142718.25;;;4.44;100.00
5877;BME280;2964;42.144;24.730;2022-12-29T03:51:12;142665.75;;;4.23;100.00
5877;BME280;2964;42.144;24.730;2022-12-29T03:53:39;142678.25;;;4.28;100.00
5877;BME280;2964;42.144;24.730;2022-12-29T03:56:06;142639.50;;;4.12;100.00
5877;BME280;2964;42.144;24.730;2022-12-29T03:58:32;142732.00;;;4.50;100.00
5877;BME280;2964;42.144;24.730;2022-12-29T04:00:59;142669.50;;;4.24;100.00
5877;BME280;2964;42.144;24.730;2022-12-29T04:03:26;142629.53;;;4.08;100.00
5877;BME280;2964;42.144;24.730;2022-12-29T04:05:54;142683.25;;;4.30;100.00
5877;BME280;2964;42.144;24.730;2022-12-29T04:08:20;142795.72;;;4.76;100.00
5877;BME280;2964;42.144;24.730;2022-12-29T04:10:48;142799.47;;;4.78;100.00
5877;BME280;2964;42.144;24.730;2022-12-29T04:13:14;142751.97;;;4.58;100.00
5877;BME280;2964;42.144;24.730;2022-12-29T04:15:42;142708.22;;;4.40;100.00
5877;BME280;2964;42.144;24.730;2022-12-29T04:18:10;142669.50;;;4.24;100.00
5877;BME280;2964;42.144;24.730;2022-12-29T04:20:37;142628.25;;;4.07;100.00
5877;BME280;2964;42.144;24.730;2022-12-29T04:23:22;142639.50;;;4.12;100.00
5877;BME280;2964;42.144;24.730;2022-12-29T04:25:49;142613.25;;;4.01;100.00
5877;BME280;2964;42.144;24.730;2022-12-29T04:28:16;142587.03;;;3.91;100.00
5877;BME280;2964;42.144;24.730;2022-12-29T04:30:43;142510.84;;;3.59;100.00
5877;BME280;2964;42.144;24.730;2022-12-29T04:33:10;142565.81;;;3.82;100.00
5877;BME280;2964;42.144;24.730;2022-12-29T04:35:37;142550.81;;;3.76;100.00
5877;BME280;2964;42.144;24.730;2022-12-29T04:38:03;142535.84;;;3.70;100.00
5877;BME280;2964;42.144;24.730;2022-12-29T04:40:31;142513.38;;;3.60;100.00
5877;BME280;2964;42.144;24.730;2022-12-29T04:42:58;142520.88;;;3.63;100.00
5877;BME280;2964;42.144;24.730;2022-12-29T04:45:25;142524.56;;;3.65;100.00
5877;BME280;2964;42.144;24.730;2022-12-29T04:47:52;142585.78;;;3.90;100.00
5877;BME280;2964;42.144;24.730;2022-12-29T04:50:18;142572.06;;;3.84;100.00
5877;BME280;2964;42.144;24.730;2022-12-29T04:52:45;142550.81;;;3.76;100.00
5877;BME280;2964;42.144;24.730;2022-12-29T04:55:12;142518.34;;;3.62;100.00
5877;BME280;2964;42.144;24.730;2022-12-29T04:57:40;142574.56;;;3.85;100.00
5877;BME280;2964;42.144;24.730;2022-12-29T05:00:08;142465.88;;;3.41;100.00
5877;BME280;2964;42.144;24.730;2022-12-29T05:02:35;142482.16;;;3.47;100.00
5877;BME280;2964;42.144;24.730;2022-12-29T05:05:02;142485.91;;;3.49;100.00
5877;BME280;2964;42.144;24.730;2022-12-29T05:07:29;142477.16;;;3.45;100.00
5877;BME280;2964;42.144;24.730;2022-12-29T05:09:56;142432.22;;;3.27;100.00
5877;BME280;2964;42.144;24.730;2022-12-29T05:12:22;142422.22;;;3.23;100.00
5877;BME280;2964;42.144;24.730;2022-12-29T05:14:50;142414.72;;;3.20;100.00
5877;BME280;2964;42.144;24.730;2022-12-29T05:20:39;142454.69;;;3.36;100.00
5877;BME280;2964;42.144;24.730;2022-12-29T05:23:05;142413.50;;;3.19;100.00
5877;BME280;2964;42.144;24.730;2022-12-29T05:25:32;142437.19;;;3.29;100.00
5877;BME280;2964;42.144;24.730;2022-12-29T05:27:59;142413.50;;;3.19;100.00
5877;BME280;2964;42.144;24.730;2022-12-29T05:30:27;142372.25;;;3.02;100.00
5877;BME280;2964;42.144;24.730;2022-12-29T05:32:53;142353.53;;;2.95;100.00
5877;BME280;2964;42.144;24.730;2022-12-29T05:35:20;142332.38;;;2.86;100.00
5877;BME280;2964;42.144;24.730;2022-12-29T05:37:47;142341.06;;;2.89;100.00
5877;BME280;2964;42.144;24.730;2022-12-29T05:40:14;142328.63;;;2.84;100.00
5877;BME280;2964;42.144;24.730;2022-12-29T05:42:40;142306.16;;;2.75;100.00
5877;BME280;2964;42.144;24.730;2022-12-29T05:45:08;142316.13;;;2.79;100.00
5877;BME280;2964;42.144;24.730;2022-12-29T05:47:36;142313.59;;;2.78;100.00
5877;BME280;2964;42.144;24.730;2022-12-29T05:50:04;142331.09;;;2.85;100.00
5877;BME280;2964;42.144;24.730;2022-12-29T05:52:42;142341.06;;;2.89;100.00
5877;BME280;2964;42.144;24.730;2022-12-29T05:55:09;142326.09;;;2.83;100.00
5877;BME280;2964;42.144;24.730;2022-12-29T05:57:36;142319.88;;;2.81;100.00
5877;BME280;2964;42.144;24.730;2022-12-29T06:00:04;142322.34;;;2.82;100.00
5877;BME280;2964;42.144;24.730;2022-12-29T06:02:31;142308.63;;;2.76;100.00
5877;BME280;2964;42.144;24.730;2022-12-29T06:04:59;142337.34;;;2.88;100.00
5877;BME280;2964;42.144;24.730;2022-12-29T06:07:25;142364.81;;;2.99;100.00
5877;BME280;2964;42.144;24.730;2022-12-29T06:09:52;142351.06;;;2.94;100.00
5877;BME280;2964;42.144;24.730;2022-12-29T06:12:19;142308.63;;;2.76;100.00
5877;BME280;2964;42.144;24.730;2022-12-29T06:14:48;142329.84;;;2.85;100.00
5877;BME280;2964;42.144;24.730;2022-12-29T06:17:14;142331.09;;;2.85;100.00
5877;BME280;2964;42.144;24.730;2022-12-29T06:19:41;142334.84;;;2.87;100.00
5877;BME280;2964;42.144;24.730;2022-12-29T06:22:10;142378.53;;;3.05;100.00
5877;BME280;2964;42.144;24.730;2022-12-29T06:24:38;142387.25;;;3.08;100.00
5877;BME280;2964;42.144;24.730;2022-12-29T06:27:05;142414.72;;;3.20;100.00
5877;BME280;2964;42.144;24.730;2022-12-29T06:29:32;142430.97;;;3.26;100.00
5877;BME280;2964;42.144;24.730;2022-12-29T06:32:00;142433.44;;;3.27;100.00
5877;BME280;2964;42.144;24.730;2022-12-29T06:34:27;142420.94;;;3.22;100.00
5877;BME280;2964;42.144;24.730;2022-12-29T06:36:53;142418.47;;;3.21;100.00
5877;BME280;2964;42.144;24.730;2022-12-29T06:39:22;142412.22;;;3.19;100.00
5877;BME280;2964;42.144;24.730;2022-12-29T06:41:51;142445.94;;;3.33;100.00
5877;BME280;2964;42.144;24.730;2022-12-29T06:44:18;142468.41;;;3.42;100.00
5877;BME280;2964;42.144;24.730;2022-12-29T06:46:45;142447.16;;;3.33;100.00
5877;BME280;2964;42.144;24.730;2022-12-29T06:49:12;142519.59;;;3.63;100.00
5877;BME280;2964;42.144;24.730;2022-12-29T06:51:38;142554.56;;;3.77;100.00
5877;BME280;2964;42.144;24.730;2022-12-29T06:54:05;142589.53;;;3.92;100.00
5877;BME280;2964;42.144;24.730;2022-12-29T06:56:33;142608.28;;;3.99;100.00
5877;BME280;2964;42.144;24.730;2022-12-29T06:59:00;142642.03;;;4.13;100.00
5877;BME280;2964;42.144;24.730;2022-12-29T07:01:27;142683.25;;;4.30;100.00
5877;BME280;2964;42.144;24.730;2022-12-29T07:03:54;142724.47;;;4.47;100.00
5877;BME280;2964;42.144;24.730;2022-12-29T07:06:20;142680.72;;;4.29;100.00
5877;BME280;2964;42.144;24.730;2022-12-29T07:08:47;142718.25;;;4.44;100.00
5877;BME280;2964;42.144;24.730;2022-12-29T07:11:14;142750.72;;;4.58;100.00
5877;BME280;2964;42.144;24.730;2022-12-29T07:13:42;142704.47;;;4.39;100.00
5877;BME280;2964;42.144;24.730;2022-12-29T07:16:09;142667.00;;;4.23;100.00
5877;BME280;2964;42.144;24.730;2022-12-29T07:18:36;142700.75;;;4.37;100.00
5877;BME280;2964;42.144;24.730;2022-12-29T07:21:03;142703.22;;;4.38;100.00
5877;BME280;2964;42.144;24.730;2022-12-29T07:23:30;142805.72;;;4.80;100.00
5877;BME280;2964;42.144;24.730;2022-12-29T07:26:01;142740.75;;;4.54;100.00
5877;BME280;2964;42.144;24.730;2022-12-29T07:28:28;142734.47;;;4.51;100.00
5877;BME280;2964;42.144;24.730;2022-12-29T07:30:56;142738.22;;;4.53;100.00
5877;BME280;2964;42.144;24.730;2022-12-29T07:33:23;142760.72;;;4.62;100.00
5877;BME280;2964;42.144;24.730;2022-12-29T07:35:50;142711.97;;;4.42;100.00
5877;BME280;2964;42.144;24.730;2022-12-29T07:38:16;142844.50;;;4.96;100.00
5877;BME280;2964;42.144;24.730;2022-12-29T07:40:43;142900.72;;;5.19;100.00
5877;BME280;2964;42.144;24.730;2022-12-29T07:43:10;142968.25;;;5.47;100.00
5877;BME280;2964;42.144;24.730;2022-12-29T07:45:36;142975.78;;;5.50;100.00
5877;BME280;2964;42.144;24.730;2022-12-29T07:48:05;143045.81;;;5.79;99.52
5877;BME280;2964;42.144;24.730;2022-12-29T07:50:33;143030.81;;;5.73;98.98
5877;BME280;2964;42.144;24.730;2022-12-29T07:53:00;143034.56;;;5.74;98.53
5877;BME280;2964;42.144;24.730;2022-12-29T07:55:27;142930.75;;;5.32;99.28
5877;BME280;2964;42.144;24.730;2022-12-29T07:57:54;142958.28;;;5.43;99.47
5877;BME280;2964;42.144;24.730;2022-12-29T08:00:21;142940.75;;;5.36;99.95
5877;BME280;2964;42.144;24.730;2022-12-29T08:02:48;142994.53;;;5.58;98.11
5877;BME280;2964;42.144;24.730;2022-12-29T08:05:16;142950.75;;;5.40;100.00
5877;BME280;2964;42.144;24.730;2022-12-29T08:07:43;142993.31;;;5.57;100.00
5877;BME280;2964;42.144;24.730;2022-12-29T08:10:11;143003.31;;;5.61;98.82
5877;BME280;2964;42.144;24.730;2022-12-29T08:12:38;142938.28;;;5.35;100.00
5877;BME280;2964;42.144;24.730;2022-12-29T08:15:07;143025.81;;;5.71;99.39
5877;BME280;2964;42.144;24.730;2022-12-29T08:17:34;142943.28;;;5.37;100.00
5877;BME280;2964;42.144;24.730;2022-12-29T08:20:01;142950.75;;;5.40;100.00
5877;BME280;2964;42.144;24.730;2022-12-29T08:22:29;142960.78;;;5.44;100.00
5877;BME280;2964;42.144;24.730;2022-12-29T08:24:56;142960.78;;;5.44;100.00
5877;BME280;2964;42.144;24.730;2022-12-29T08:27:23;142984.53;;;5.54;100.00
5877;BME280;2964;42.144;24.730;2022-12-29T08:29:49;142836.97;;;4.93;100.00
5877;BME280;2964;42.144;24.730;2022-12-29T08:32:16;142930.75;;;5.32;100.00
5877;BME280;2964;42.144;24.730;2022-12-29T08:34:43;143229.84;;;6.54;100.00
5877;BME280;2964;42.144;24.730;2022-12-29T08:37:10;143378.84;;;7.15;97.89
5877;BME280;2964;42.144;24.730;2022-12-29T08:39:41;143169.75;;;6.30;97.95
5877;BME280;2964;42.144;24.730;2022-12-29T08:42:08;143173.53;;;6.31;100.00
5877;BME280;2964;42.144;24.730;2022-12-29T08:44:43;143323.75;;;6.93;99.17
5877;BME280;2964;42.144;24.730;2022-12-29T08:47:19;143330.03;;;6.95;98.13
5877;BME280;2964;42.144;24.730;2022-12-29T08:49:54;143338.81;;;6.99;98.32
5877;BME280;2964;42.144;24.730;2022-12-29T08:52:28;143322.50;;;6.92;99.29
5877;BME280;2964;42.144;24.730;2022-12-29T08:55:06;143338.81;;;6.99;98.76
5877;BME280;2964;42.144;24.730;2022-12-29T08:57:33;143426.47;;;7.35;97.75
5877;BME280;2964;42.144;24.730;2022-12-29T09:00:00;143368.84;;;7.11;98.72
5877;BME280;2964;42.144;24.730;2022-12-29T09:02:27;143434.00;;;7.38;97.33
5877;BME280;2964;42.144;24.730;2022-12-29T09:04:54;143363.84;;;7.09;98.19
5877;BME280;2964;42.144;24.730;2022-12-29T09:07:22;143353.81;;;7.05;98.70
5877;BME280;2964;42.144;24.730;2022-12-29T09:09:49;143445.25;;;7.43;98.02
5877;BME280;2964;42.144;24.730;2022-12-29T09:12:17;143456.56;;;7.47;97.99
5877;BME280;2964;42.144;24.730;2022-12-29T09:14:45;143621.94;;;8.15;96.66
5877;BME280;2964;42.144;24.730;2022-12-29T09:17:13;143786.28;;;8.82;93.21
5877;BME280;2964;42.144;24.730;2022-12-29T09:19:56;143831.44;;;9.01;91.68
5877;BME280;2964;42.144;24.730;2022-12-29T09:22:23;143929.31;;;9.41;89.00
5877;BME280;2964;42.144;24.730;2022-12-29T09:24:50;144068.66;;;9.98;86.43
5877;BME280;2964;42.144;24.730;2022-12-29T09:27:18;144561.28;;;11.99;80.77
5877;BME280;2964;42.144;24.730;2022-12-29T09:29:44;144699.63;;;12.55;76.98
5877;BME280;2964;42.144;24.730;2022-12-29T09:32:11;144707.19;;;12.59;77.18
5877;BME280;2964;42.144;24.730;2022-12-29T09:34:38;145029.44;;;13.90;74.30
5877;BME280;2964;42.144;24.730;2022-12-29T09:37:04;145460.47;;;15.66;67.35
5877;BME280;2964;42.144;24.730;2022-12-29T09:39:31;145846.72;;;17.23;62.43
5877;BME280;2964;42.144;24.730;2022-12-29T09:42:01;146000.78;;;17.85;59.38
5877;BME280;2964;42.144;24.730;2022-12-29T09:44:46;146374.97;;;19.37;54.63
5877;BME280;2964;42.144;24.730;2022-12-29T09:47:16;146445.75;;;19.66;52.04
5877;BME280;2964;42.144;24.730;2022-12-29T09:49:46;146329.44;;;19.19;51.30
5877;BME280;2964;42.144;24.730;2022-12-29T09:52:29;146602.69;;;20.30;47.42
5877;BME280;2964;42.144;24.730;2022-12-29T09:54:59;146807.78;;;21.13;44.49
5877;BME280;2964;42.144;24.730;2022-12-29T09:57:32;146521.72;;;19.97;46.07
5877;BME280;2964;42.144;24.730;2022-12-29T10:00:06;146668.47;;;20.56;45.40
5877;BME280;2964;42.144;24.730;2022-12-29T10:02:38;146316.78;;;19.14;47.14
5877;BME280;2964;42.144;24.730;2022-12-29T10:05:19;146335.75;;;19.21;47.12
5877;BME280;2964;42.144;24.730;2022-12-29T10:07:53;145786.09;;;16.98;51.76
5877;BME280;2964;42.144;24.730;2022-12-29T10:10:31;145068.50;;;14.06;59.09
5877;BME280;2964;42.144;24.730;2022-12-29T10:13:08;144580.16;;;12.07;65.92
5877;BME280;2964;42.144;24.730;2022-12-29T10:15:49;144254.56;;;10.74;72.75
5877;BME280;2964;42.144;24.730;2022-12-29T10:18:42;144141.47;;;10.28;75.21
5877;BME280;2964;42.144;24.730;2022-12-29T10:21:20;144201.78;;;10.52;74.24
5877;BME280;2964;42.144;24.730;2022-12-29T10:23:51;144189.22;;;10.47;75.03
5877;BME280;2964;42.144;24.730;2022-12-29T10:26:20;144061.09;;;9.95;76.96
5877;BME280;2964;42.144;24.730;2022-12-29T10:28:50;144076.16;;;10.01;78.80
5877;BME280;2964;42.144;24.730;2022-12-29T10:31:22;144078.69;;;10.02;79.46
5877;BME280;2964;42.144;24.730;2022-12-29T10:33:51;144133.91;;;10.24;77.84
5877;BME280;2964;42.144;24.730;2022-12-29T10:36:24;144125.13;;;10.21;77.77
5877;BME280;2964;42.144;24.730;2022-12-29T10:39:01;144079.94;;;10.02;79.59
5877;BME280;2964;42.144;24.730;2022-12-29T10:41:36;144073.66;;;10.00;79.20
5877;BME280;2964;42.144;24.730;2022-12-29T10:44:04;144033.50;;;9.83;80.86
5877;BME280;2964;42.144;24.730;2022-12-29T10:46:35;144116.34;;;10.17;79.06
5877;BME280;2964;42.144;24.730;2022-12-29T10:49:03;144064.88;;;9.96;78.60
5877;BME280;2964;42.144;24.730;2022-12-29T10:51:32;144042.28;;;9.87;78.89
5877;BME280;2964;42.144;24.730;2022-12-29T10:54:10;143970.72;;;9.58;79.21
5877;BME280;2964;42.144;24.730;2022-12-29T10:56:42;143933.03;;;9.42;81.39
5877;BME280;2964;42.144;24.730;2022-12-29T10:59:15;143900.44;;;9.29;81.80
5877;BME280;2964;42.144;24.730;2022-12-29T11:01:53;144018.41;;;9.77;80.52
5877;BME280;2964;42.144;24.730;2022-12-29T11:07:11;144012.13;;;9.75;80.31
5877;BME280;2964;42.144;24.730;2022-12-29T11:09:39;144053.56;;;9.92;79.76
5877;BME280;2964;42.144;24.730;2022-12-29T11:12:25;144013.38;;;9.75;81.17
5877;BME280;2964;42.144;24.730;2022-12-29T11:15:12;144041.00;;;9.86;80.08
5877;BME280;2964;42.144;24.730;2022-12-29T11:17:46;143998.34;;;9.69;80.23
5877;BME280;2964;42.144;24.730;2022-12-29T11:20:30;143930.56;;;9.41;81.15
5877;BME280;2964;42.144;24.730;2022-12-29T11:22:58;143987.00;;;9.64;80.56
5877;BME280;2964;42.144;24.730;2022-12-29T11:25:25;144018.41;;;9.77;79.52
5877;BME280;2964;42.144;24.730;2022-12-29T11:28:03;144025.94;;;9.80;79.80
5877;BME280;2964;42.144;24.730;2022-12-29T11:30:43;143980.75;;;9.62;80.49
5877;BME280;2964;42.144;24.730;2022-12-29T11:33:13;143946.91;;;9.48;81.45
5877;BME280;2964;42.144;24.730;2022-12-29T11:35:43;143958.16;;;9.53;80.57
5877;BME280;2964;42.144;24.730;2022-12-29T11:38:19;144044.75;;;9.88;80.06
5877;BME280;2964;42.144;24.730;2022-12-29T11:40:47;144030.97;;;9.82;78.37
5877;BME280;2964;42.144;24.730;2022-12-29T11:43:21;144071.13;;;9.99;78.36
5877;BME280;2964;42.144;24.730;2022-12-29T11:45:53;144039.75;;;9.86;78.91
5877;BME280;2964;42.144;24.730;2022-12-29T11:48:24;144089.97;;;10.07;78.68
5877;BME280;2964;42.144;24.730;2022-12-29T11:50:58;144063.59;;;9.96;78.89
5877;BME280;2964;42.144;24.730;2022-12-29T11:53:27;144101.28;;;10.11;77.48
5877;BME280;2964;42.144;24.730;2022-12-29T11:55:56;144073.66;;;10.00;78.42
5877;BME280;2964;42.144;24.730;2022-12-29T11:58:28;144013.38;;;9.75;79.14
5877;BME280;2964;42.144;24.730;2022-12-29T12:01:00;144028.47;;;9.81;79.39
5877;BME280;2964;42.144;24.730;2022-12-29T12:03:32;144078.69;;;10.02;78.79
5877;BME280;2964;42.144;24.730;2022-12-29T12:06:02;144151.56;;;10.32;76.94
5877;BME280;2964;42.144;24.730;2022-12-29T12:08:36;144108.78;;;10.14;77.17
5877;BME280;2964;42.144;24.730;2022-12-29T12:11:08;144154.03;;;10.33;76.91
5877;BME280;2964;42.144;24.730;2022-12-29T12:13:40;144088.72;;;10.06;77.09
5877;BME280;2964;42.144;24.730;2022-12-29T12:16:13;144068.66;;;9.98;77.79
5877;BME280;2964;42.144;24.730;2022-12-29T12:18:46;144067.38;;;9.97;78.77
5877;BME280;2964;42.144;24.730;2022-12-29T12:21:20;144116.34;;;10.17;78.40
5877;BME280;2964;42.144;24.730;2022-12-29T12:24:00;144182.94;;;10.45;76.08
5877;BME280;2964;42.144;24.730;2022-12-29T12:26:32;144179.19;;;10.43;76.22
5877;BME280;2964;42.144;24.730;2022-12-29T12:29:10;144169.16;;;10.39;76.14
5877;BME280;2964;42.144;24.730;2022-12-29T12:31:44;144166.59;;;10.38;75.94
5877;BME280;2964;42.144;24.730;2022-12-29T12:34:18;144097.50;;;10.10;76.98
5877;BME280;2964;42.144;24.730;2022-12-29T12:37:10;144103.78;;;10.12;77.19
5877;BME280;2964;42.144;24.730;2022-12-29T12:39:49;144111.31;;;10.15;77.33
5877;BME280;2964;42.144;24.730;2022-12-29T12:42:35;144103.78;;;10.12;76.41
5877;BME280;2964;42.144;24.730;2022-12-29T12:45:27;144123.88;;;10.20;76.57
5877;BME280;2964;42.144;24.730;2022-12-29T12:48:06;144159.09;;;10.35;76.23
5877;BME280;2964;42.144;24.730;2022-12-29T12:50:46;144164.13;;;10.37;75.11
5877;BME280;2964;42.144;24.730;2022-12-29T12:53:26;144127.66;;;10.22;75.70
5877;BME280;2964;42.144;24.730;2022-12-29T12:56:07;144161.59;;;10.36;75.28
5877;BME280;2964;42.144;24.730;2022-12-29T12:58:44;144209.34;;;10.55;74.81
5877;BME280;2964;42.144;24.730;2022-12-29T13:01:22;144211.81;;;10.56;74.69
5877;BME280;2964;42.144;24.730;2022-12-29T13:07:13;144170.38;;;10.39;75.55
5877;BME280;2964;42.144;24.730;2022-12-29T13:09:58;144203.03;;;10.53;75.13
5877;BME280;2964;42.144;24.730;2022-12-29T13:12:34;144231.94;;;10.65;74.41
5877;BME280;2964;42.144;24.730;2022-12-29T13:15:15;144196.78;;;10.50;74.71
5877;BME280;2964;42.144;24.730;2022-12-29T13:17:54;144199.31;;;10.51;75.17
5877;BME280;2964;42.144;24.730;2022-12-29T13:20:36;144231.94;;;10.65;74.64
5877;BME280;2964;42.144;24.730;2022-12-29T13:23:13;144252.03;;;10.73;74.05
5877;BME280;2964;42.144;24.730;2022-12-29T13:25:48;144205.56;;;10.54;74.54
5877;BME280;2964;42.144;24.730;2022-12-29T13:28:22;144233.19;;;10.65;74.43
5877;BME280;2964;42.144;24.730;2022-12-29T13:30:57;144234.44;;;10.66;74.32
5877;BME280;2964;42.144;24.730;2022-12-29T13:33:34;144200.53;;;10.52;74.88
5877;BME280;2964;42.144;24.730;2022-12-29T13:36:12;144200.53;;;10.52;74.90